Time;durP1;ratioP1;P1;durP2;ratioP2;P2;SDS_P1;SDS_P2;PMS_P1;PMS_P2;Temp;Humidity;BMP_temperature;BMP_pressure;BME280_temperature;BME280_humidity;BME280_pressure;Samples;Min_cycle;Max_cycle;Signal;HPM_P1;HPM_P2
2022/12/11 00:01:25;;;;;;;21.25;13.82;;;;;;;-6.20;100.00;101192.00;4999314;28;20221;-49
2022/12/11 00:03:51;;;;;;;22.08;13.10;;;;;;;-6.18;100.00;101183.41;5004050;28;20239;-48
2022/12/11 00:06:20;;;;;;;21.58;14.30;;;;;;;-6.35;100.00;101180.19;4999352;28;20256;-47
2022/12/11 00:08:46;;;;;;;22.02;13.90;;;;;;;-6.43;100.00;101185.13;5002612;28;20630;-49
2022/12/11 00:11:14;;;;;;;25.27;14.05;;;;;;;-6.29;100.00;101184.75;4998135;28;20189;-48
2022/12/11 00:13:40;;;;;;;19.98;12.77;;;;;;;-6.31;100.00;101179.47;5001601;28;20176;-48
2022/12/11 00:16:06;;;;;;;21.60;13.18;;;;;;;-6.28;100.00;101187.38;4998296;28;20212;-48
2022/12/11 00:18:32;;;;;;;22.98;14.20;;;;;;;-6.33;100.00;101178.53;5000083;28;20176;-48
2022/12/11 00:21:02;;;;;;;22.00;13.93;;;;;;;-6.53;100.00;101169.97;4998790;28;20207;-48
2022/12/11 00:23:28;;;;;;;19.45;12.50;;;;;;;-6.64;100.00;101173.91;5018143;28;20213;-49
2022/12/11 00:25:53;;;;;;;21.55;13.48;;;;;;;-6.49;100.00;101178.81;4998649;28;20181;-49
2022/12/11 00:28:19;;;;;;;18.23;12.57;;;;;;;-6.44;100.00;101178.13;4999187;28;20275;-49
2022/12/11 00:30:45;;;;;;;20.70;12.48;;;;;;;-6.48;100.00;101184.06;5000805;28;20228;-48
2022/12/11 00:33:12;;;;;;;24.08;14.63;;;;;;;-6.51;100.00;101170.06;4998941;28;20242;-49
2022/12/11 00:35:40;;;;;;;26.00;15.05;;;;;;;-6.42;100.00;101176.47;5018722;22;20234;-41
2022/12/11 00:38:06;;;;;;;30.38;17.52;;;;;;;-6.54;100.00;101177.72;5026103;28;20542;-41
2022/12/11 00:40:35;;;;;;;32.65;18.05;;;;;;;-6.54;100.00;101176.00;5027958;28;20226;-43
2022/12/11 00:43:01;;;;;;;30.98;16.65;;;;;;;-6.60;100.00;101172.28;5021929;28;20657;-43
2022/12/11 00:45:27;;;;;;;25.63;15.10;;;;;;;-6.55;100.00;101161.22;5023511;28;20191;-43
2022/12/11 00:47:52;;;;;;;21.60;14.93;;;;;;;-6.57;100.00;101169.81;5029778;28;20596;-43
2022/12/11 00:50:18;;;;;;;22.42;14.52;;;;;;;-6.64;100.00;101166.97;5024911;28;20689;-44
2022/12/11 00:52:43;;;;;;;22.52;13.70;;;;;;;-6.65;100.00;101161.72;5026131;28;20661;-43
2022/12/11 00:55:10;;;;;;;22.33;14.98;;;;;;;-6.66;100.00;101165.16;5030600;28;20195;-44
2022/12/11 00:57:35;;;;;;;25.73;14.07;;;;;;;-6.71;100.00;101165.00;5024275;28;20690;-43
2022/12/11 01:00:05;;;;;;;24.10;14.93;;;;;;;-6.72;100.00;101164.91;5031706;28;20254;-44
2022/12/11 01:02:31;;;;;;;22.40;14.98;;;;;;;-6.70;100.00;101156.31;5021377;28;20200;-41
2022/12/11 01:04:56;;;;;;;23.83;15.70;;;;;;;-6.78;100.00;101157.75;5026041;28;20179;-42
2022/12/11 01:07:22;;;;;;;26.05;15.80;;;;;;;-6.81;100.00;101164.59;5034988;28;20487;-42
2022/12/11 01:12:31;;;;;;;24.00;15.60;;;;;;;-6.93;100.00;101162.38;5037890;28;20175;-41
2022/12/11 01:14:56;;;;;;;22.15;14.45;;;;;;;-7.08;100.00;101175.75;5024628;28;20238;-43
2022/12/11 01:17:22;;;;;;;25.58;15.65;;;;;;;-7.02;100.00;101172.47;5044589;28;20187;-44
2022/12/11 01:19:47;;;;;;;24.35;15.27;;;;;;;-6.89;100.00;101152.19;5026544;28;20216;-43
2022/12/11 01:22:13;;;;;;;25.38;14.75;;;;;;;-6.90;100.00;101152.97;5031196;28;20222;-43
2022/12/11 01:24:38;;;;;;;23.73;15.30;;;;;;;-6.91;100.00;101158.13;5029605;28;20263;-43
2022/12/11 01:27:04;;;;;;;22.40;15.02;;;;;;;-6.85;100.00;101156.63;5028571;28;20173;-43
2022/12/11 01:29:29;;;;;;;25.33;16.20;;;;;;;-6.91;100.00;101163.34;5015512;28;20554;-40
2022/12/11 01:31:55;;;;;;;23.88;15.13;;;;;;;-6.89;100.00;101160.00;5023079;28;20172;-42
2022/12/11 01:34:20;;;;;;;26.65;15.90;;;;;;;-6.95;100.00;101162.34;5031116;28;20180;-41
2022/12/11 01:36:46;;;;;;;24.98;15.68;;;;;;;-7.04;100.00;101167.19;5019519;28;20262;-41
2022/12/11 01:39:11;;;;;;;23.85;15.25;;;;;;;-7.00;100.00;101168.19;5028107;28;20191;-41
2022/12/11 01:41:38;;;;;;;28.60;16.08;;;;;;;-7.06;100.00;101164.53;5029488;28;20663;-40
2022/12/11 01:44:14;;;;;;;23.33;14.77;;;;;;;-7.25;100.00;101172.47;5020440;28;20196;-44
2022/12/11 01:46:40;;;;;;;23.73;15.55;;;;;;;-7.25;100.00;101167.25;5018140;28;20183;-43
2022/12/11 01:49:10;;;;;;;27.83;14.65;;;;;;;-7.20;100.00;101164.84;5031731;28;20646;-43
2022/12/11 01:51:51;;;;;;;26.98;16.33;;;;;;;-7.25;100.00;101170.75;5016300;28;20245;-44
2022/12/11 01:54:20;;;;;;;24.42;15.32;;;;;;;-7.14;100.00;101170.28;5028289;28;20186;-43
2022/12/11 01:56:49;;;;;;;21.40;13.85;;;;;;;-7.20;100.00;101172.66;5041676;28;20183;-45
2022/12/11 01:59:18;;;;;;;21.77;14.50;;;;;;;-7.11;100.00;101171.28;5040317;28;20200;-42
2022/12/11 02:01:52;;;;;;;24.33;15.60;;;;;;;-7.23;100.00;101159.53;5023047;28;20192;-42
2022/12/11 02:04:19;;;;;;;27.42;15.13;;;;;;;-7.10;100.00;101159.16;5036663;28;20614;-42
2022/12/11 02:06:47;;;;;;;23.20;15.00;;;;;;;-7.07;100.00;101154.06;5025094;28;20222;-45
2022/12/11 02:09:17;;;;;;;26.85;15.02;;;;;;;-7.18;100.00;101157.97;5035803;28;20197;-44
2022/12/11 02:12:21;;;;;;;25.75;15.95;;;;;;;-7.11;100.00;101149.56;5026776;28;20322;-43
2022/12/11 02:15:15;;;;;;;26.25;13.75;;;;;;;-7.17;100.00;101146.72;5018218;28;20192;-46
2022/12/11 02:17:49;;;;;;;25.10;13.95;;;;;;;-7.31;100.00;101156.59;5024116;28;20226;-45
2022/12/11 02:20:26;;;;;;;21.13;13.52;;;;;;;-7.21;100.00;101150.94;5032823;28;20210;-47
2022/12/11 02:22:57;;;;;;;22.67;14.05;;;;;;;-7.18;100.00;101145.84;5029100;28;20565;-45
2022/12/11 02:25:45;;;;;;;23.67;14.35;;;;;;;-7.14;100.00;101154.66;5024742;28;20209;-47
2022/12/11 02:28:24;;;;;;;23.58;15.13;;;;;;;-7.29;100.00;101165.38;5030877;28;20557;-45
2022/12/11 02:30:56;;;;;;;22.52;14.27;;;;;;;-7.30;100.00;101166.22;5021592;28;20208;-45
2022/12/11 02:33:31;;;;;;;26.17;14.02;;;;;;;-7.20;100.00;101157.91;5038506;28;20199;-47
2022/12/11 02:35:58;;;;;;;21.17;12.77;;;;;;;-7.17;100.00;101172.75;5013650;28;20219;-45
2022/12/11 02:38:30;;;;;;;26.77;14.88;;;;;;;-7.12;100.00;101174.72;5029610;28;20183;-45
2022/12/11 02:40:57;;;;;;;24.73;15.40;;;;;;;-7.11;100.00;101179.09;5025166;28;20200;-46
2022/12/11 02:43:24;;;;;;;22.85;13.70;;;;;;;-7.10;100.00;101160.03;5021232;28;20238;-45
2022/12/11 02:45:51;;;;;;;20.15;13.05;;;;;;;-7.05;100.00;101162.81;5024295;28;20226;-47
2022/12/11 02:48:19;;;;;;;25.67;15.52;;;;;;;-7.12;100.00;101164.31;5022604;28;20315;-46
2022/12/11 02:50:47;;;;;;;29.35;17.02;;;;;;;-7.28;100.00;101160.22;5035535;28;20203;-46
2022/12/11 02:53:23;;;;;;;22.17;14.77;;;;;;;-7.39;100.00;101166.72;5024007;28;20184;-46
2022/12/11 02:55:56;;;;;;;23.17;13.85;;;;;;;-7.36;100.00;101173.75;5017783;28;20193;-47
2022/12/11 02:58:30;;;;;;;22.42;13.93;;;;;;;-7.34;100.00;101162.59;5024255;28;20188;-46
2022/12/11 03:00:56;;;;;;;24.67;14.50;;;;;;;-7.39;100.00;101164.13;5025877;28;20226;-45
2022/12/11 03:03:22;;;;;;;23.90;15.18;;;;;;;-7.27;100.00;101167.19;5017345;28;20192;-45
2022/12/11 03:05:47;;;;;;;22.98;14.80;;;;;;;-7.18;100.00;101166.66;5030721;28;20230;-45
2022/12/11 03:08:17;;;;;;;24.52;14.05;;;;;;;-7.10;100.00;101166.97;5025087;28;20216;-46
2022/12/11 03:10:44;;;;;;;26.48;15.73;;;;;;;-7.14;100.00;101165.97;5020233;28;20275;-45
2022/12/11 03:13:11;;;;;;;26.25;14.95;;;;;;;-7.19;100.00;101164.91;5031634;28;20203;-46
2022/12/11 03:16:04;;;;;;;26.70;15.30;;;;;;;-7.16;100.00;101162.41;5025943;28;20291;-47
2022/12/11 03:18:38;;;;;;;23.15;14.63;;;;;;;-7.24;100.00;101166.41;5028681;28;20591;-46
2022/12/11 03:21:17;;;;;;;25.80;15.00;;;;;;;-7.26;100.00;101161.19;5034375;28;20224;-46
2022/12/11 03:23:54;;;;;;;22.75;14.80;;;;;;;-7.33;100.00;101164.34;5021790;28;20179;-46
2022/12/11 03:26:21;;;;;;;27.13;15.70;;;;;;;-7.30;100.00;101163.59;5034293;28;20215;-46
2022/12/11 03:28:58;;;;;;;23.52;15.13;;;;;;;-7.18;100.00;101152.78;5026418;28;20639;-47
2022/12/11 03:31:37;;;;;;;26.02;15.27;;;;;;;-7.17;100.00;101151.91;5038938;28;20277;-47
2022/12/11 03:34:12;;;;;;;23.75;15.63;;;;;;;-7.23;100.00;101152.59;5040379;28;20616;-46
2022/12/11 03:36:38;;;;;;;27.52;15.85;;;;;;;-7.19;100.00;101150.97;5040661;28;20201;-45
2022/12/11 03:39:12;;;;;;;27.80;15.77;;;;;;;-7.22;100.00;101149.16;5031135;28;20187;-47
2022/12/11 03:41:39;;;;;;;26.90;16.08;;;;;;;-7.24;100.00;101156.00;5026951;28;20224;-46
2022/12/11 03:44:06;;;;;;;25.98;14.93;;;;;;;-7.32;100.00;101155.72;5022176;28;20180;-45
2022/12/11 03:46:35;;;;;;;26.58;15.07;;;;;;;-7.28;100.00;101154.09;5033457;28;20192;-46
2022/12/11 03:49:06;;;;;;;22.77;15.10;;;;;;;-7.36;100.00;101152.94;5026785;28;20183;-42
2022/12/11 03:51:34;;;;;;;26.85;15.20;;;;;;;-7.49;100.00;101167.19;5027415;28;20243;-43
2022/12/11 03:54:00;;;;;;;27.40;16.58;;;;;;;-7.44;100.00;101157.81;5034981;28;20227;-41
2022/12/11 03:56:29;;;;;;;23.90;15.80;;;;;;;-7.30;100.00;101153.19;5036475;28;20883;-41
2022/12/11 03:58:55;;;;;;;27.38;15.18;;;;;;;-7.32;100.00;101160.94;5041442;28;20593;-41
2022/12/11 04:01:20;;;;;;;25.77;16.48;;;;;;;-7.34;100.00;101164.31;5050148;28;20219;-43
2022/12/11 04:03:46;;;;;;;24.20;14.73;;;;;;;-7.27;100.00;101155.91;5040580;28;20188;-43
2022/12/11 04:06:11;;;;;;;25.85;15.45;;;;;;;-7.38;100.00;101165.88;5015026;28;20198;-41
2022/12/11 04:08:37;;;;;;;28.05;15.20;;;;;;;-7.31;100.00;101157.47;5017394;28;20192;-43
2022/12/11 04:15:00;;;;;;;25.88;15.35;;;;;;;-7.31;100.00;101156.59;5043970;28;20183;-42
2022/12/11 04:16:33;;;;;;;23.05;14.50;;;;;;;-7.37;100.00;101159.84;5033039;28;20196;-43
2022/12/11 04:24:26;;;;;;;21.33;14.32;;;;;;;-7.28;100.00;101146.28;5031203;28;20180;-41
2022/12/11 04:26:51;;;;;;;26.52;15.20;;;;;;;-7.21;100.00;101144.84;5032095;28;20633;-42
2022/12/11 04:29:17;;;;;;;23.77;15.77;;;;;;;-7.28;100.00;101141.09;5032359;28;20175;-45
2022/12/11 04:31:44;;;;;;;24.55;15.65;;;;;;;-7.31;100.00;101141.00;5042972;28;20164;-40
2022/12/11 04:34:10;;;;;;;22.83;15.27;;;;;;;-7.29;100.00;101139.34;5033227;28;20242;-43
2022/12/11 04:36:36;;;;;;;24.98;15.25;;;;;;;-7.24;100.00;101148.19;5044182;28;20207;-44
2022/12/11 04:39:04;;;;;;;26.95;16.25;;;;;;;-7.29;100.00;101139.34;5046899;28;20567;-43
2022/12/11 04:41:30;;;;;;;28.67;16.77;;;;;;;-7.37;100.00;101143.34;5033369;28;20254;-42
2022/12/11 04:43:55;;;;;;;26.08;16.30;;;;;;;-7.40;100.00;101136.31;5039993;28;20541;-41
2022/12/11 04:46:22;;;;;;;23.45;15.88;;;;;;;-7.51;100.00;101146.28;5040724;28;20188;-42
2022/12/11 04:48:49;;;;;;;26.52;15.07;;;;;;;-7.42;100.00;101145.78;5016095;28;20184;-41
2022/12/11 04:51:15;;;;;;;23.70;15.23;;;;;;;-7.47;100.00;101134.31;5035203;28;20204;-42
2022/12/11 04:53:41;;;;;;;24.10;14.88;;;;;;;-7.51;100.00;101146.28;5042031;28;20651;-44
2022/12/11 04:56:09;;;;;;;22.02;14.13;;;;;;;-7.51;100.00;101154.09;5034617;28;20689;-43
2022/12/11 04:58:35;;;;;;;27.90;14.80;;;;;;;-7.53;100.00;101155.75;5035407;28;20741;-41
2022/12/11 05:01:27;;;;;;;25.08;14.82;;;;;;;-7.69;100.00;101146.44;5038316;28;20574;-42
2022/12/11 05:03:52;;;;;;;25.95;14.15;;;;;;;-7.55;100.00;101143.50;5037472;28;20297;-42
2022/12/11 05:06:18;;;;;;;23.10;14.00;;;;;;;-7.49;100.00;101144.63;5025253;28;20326;-41
2022/12/11 05:08:44;;;;;;;24.25;13.50;;;;;;;-7.55;100.00;101139.19;5030706;28;20177;-41
2022/12/11 05:11:11;;;;;;;23.30;14.50;;;;;;;-7.54;100.00;101140.09;5031111;28;20207;-42
2022/12/11 05:13:38;;;;;;;24.38;14.90;;;;;;;-7.52;100.00;101141.00;5036362;28;20236;-44
2022/12/11 05:16:05;;;;;;;23.63;13.40;;;;;;;-7.64;100.00;101141.41;5031902;28;20211;-45
2022/12/11 05:18:30;;;;;;;23.73;13.75;;;;;;;-7.67;100.00;101136.09;5035118;28;20318;-42
2022/12/11 05:20:58;;;;;;;25.55;16.23;;;;;;;-7.88;100.00;101149.13;5022849;28;20261;-44
2022/12/11 05:23:24;;;;;;;21.92;14.00;;;;;;;-7.72;100.00;101141.13;5028864;28;20203;-43
2022/12/11 05:25:58;;;;;;;23.27;13.40;;;;;;;-7.61;100.00;101145.84;5045029;28;20647;-44
2022/12/11 05:28:25;;;;;;;27.48;14.63;;;;;;;-7.85;100.00;101141.41;5024049;28;20757;-46
2022/12/11 05:30:58;;;;;;;24.92;14.32;;;;;;;-7.72;100.00;101150.63;5024092;28;20572;-46
2022/12/11 05:33:24;;;;;;;25.13;14.00;;;;;;;-7.87;100.00;101144.00;5035588;28;20206;-47
2022/12/11 05:35:50;;;;;;;25.55;15.20;;;;;;;-8.08;100.00;101143.97;5017912;28;20195;-48
2022/12/11 05:38:15;;;;;;;23.63;14.40;;;;;;;-8.02;100.00;101147.63;5027385;28;20191;-47
2022/12/11 05:40:41;;;;;;;24.05;13.63;;;;;;;-7.86;100.00;101137.06;5041033;28;20207;-46
2022/12/11 05:43:07;;;;;;;24.08;14.27;;;;;;;-7.82;100.00;101138.97;5024932;28;20176;-46
2022/12/11 05:45:33;;;;;;;22.00;13.77;;;;;;;-7.73;100.00;101141.06;5043538;28;20218;-45
2022/12/11 05:47:59;;;;;;;24.45;14.32;;;;;;;-7.89;100.00;101137.84;5038876;28;20609;-46
2022/12/11 05:50:25;;;;;;;23.60;14.07;;;;;;;-7.82;100.00;101136.38;5042700;28;20207;-46
2022/12/11 05:52:50;;;;;;;21.55;13.60;;;;;;;-7.80;100.00;101139.94;5029922;28;20605;-43
2022/12/11 05:55:16;;;;;;;25.33;15.13;;;;;;;-7.87;100.00;101137.91;5030294;28;20199;-43
2022/12/11 05:57:41;;;;;;;25.83;14.30;;;;;;;-8.05;100.00;101130.19;5036427;28;20195;-42
2022/12/11 06:00:08;;;;;;;27.58;15.38;;;;;;;-8.06;100.00;101122.38;5020589;28;20212;-44
2022/12/11 06:02:34;;;;;;;24.38;14.90;;;;;;;-8.00;100.00;101140.78;5034922;28;20249;-44
2022/12/11 06:05:00;;;;;;;23.38;14.48;;;;;;;-7.99;100.00;101145.19;5038197;28;20248;-42
2022/12/11 06:07:25;;;;;;;25.00;14.75;;;;;;;-7.91;100.00;101142.09;5044073;28;20172;-45
2022/12/11 06:09:51;;;;;;;23.63;14.07;;;;;;;-8.00;100.00;101144.31;5024244;28;20211;-42
2022/12/11 06:12:16;;;;;;;27.70;15.60;;;;;;;-8.05;100.00;101145.81;5023348;28;20187;-41
2022/12/11 06:14:42;;;;;;;25.65;15.43;;;;;;;-8.03;100.00;101146.75;5035772;28;20186;-44
2022/12/11 06:17:07;;;;;;;26.77;15.27;;;;;;;-7.97;100.00;101151.34;5037948;28;20203;-42
2022/12/11 06:19:33;;;;;;;27.35;15.30;;;;;;;-8.09;100.00;101150.00;5037081;28;20205;-44
2022/12/11 06:21:58;;;;;;;23.25;13.65;;;;;;;-7.92;100.00;101150.69;5045964;28;20195;-41
2022/12/11 06:24:24;;;;;;;24.95;15.45;;;;;;;-7.98;100.00;101153.06;5034055;28;20218;-41
2022/12/11 06:26:49;;;;;;;25.20;14.70;;;;;;;-8.01;100.00;101152.03;5043961;28;20529;-42
2022/12/11 06:29:15;;;;;;;28.70;16.52;;;;;;;-8.18;100.00;101154.78;5015549;28;20247;-43
2022/12/11 06:31:40;;;;;;;33.70;16.38;;;;;;;-8.05;100.00;101158.81;5028819;28;20223;-44
2022/12/11 06:34:06;;;;;;;65.00;34.38;;;;;;;-8.05;100.00;101156.19;5033978;28;20183;-41
2022/12/11 06:36:31;;;;;;;27.63;15.73;;;;;;;-8.06;100.00;101144.03;5021736;28;20328;-43
2022/12/11 06:38:57;;;;;;;23.30;14.70;;;;;;;-8.16;100.00;101144.47;5042501;23;20667;-45
2022/12/11 06:41:22;;;;;;;28.95;16.05;;;;;;;-8.19;100.00;101146.94;5010000;28;20207;-46
2022/12/11 06:43:48;;;;;;;26.75;15.38;;;;;;;-8.17;100.00;101158.31;5010179;28;20184;-44
2022/12/11 06:46:17;;;;;;;33.70;19.25;;;;;;;-8.10;100.00;101155.13;5010246;28;20180;-44
2022/12/11 06:48:43;;;;;;;27.65;15.13;;;;;;;-8.09;100.00;101151.69;5009785;28;20541;-46
2022/12/11 06:51:11;;;;;;;34.95;17.77;;;;;;;-8.09;100.00;101150.00;5010071;28;20278;-45
2022/12/11 06:53:38;;;;;;;60.45;28.55;;;;;;;-8.11;100.00;101149.06;5010243;28;20173;-47
2022/12/11 06:56:06;;;;;;;32.20;18.83;;;;;;;-8.06;100.00;101154.44;5009983;28;20200;-48
2022/12/11 06:58:33;;;;;;;26.70;15.85;;;;;;;-7.98;100.00;101149.53;5010107;28;20181;-45
2022/12/11 07:00:59;;;;;;;24.67;14.13;;;;;;;-8.02;100.00;101158.03;5009751;28;20244;-45
2022/12/11 07:03:24;;;;;;;23.63;14.05;;;;;;;-8.20;100.00;101169.47;5013284;28;20587;-44
2022/12/11 07:05:50;;;;;;;22.88;14.18;;;;;;;-8.12;100.00;101156.78;5013905;28;20257;-49
2022/12/11 07:08:15;;;;;;;24.30;14.55;;;;;;;-8.17;100.00;101161.78;5013363;28;20249;-44
2022/12/11 07:10:41;;;;;;;24.23;14.73;;;;;;;-8.20;100.00;101165.94;5013545;28;20201;-47
2022/12/11 07:13:06;;;;;;;22.52;13.10;;;;;;;-8.43;100.00;101171.06;5013450;28;20539;-45
2022/12/11 07:15:32;;;;;;;22.65;13.27;;;;;;;-8.48;100.00;101171.69;5013675;28;20360;-46
2022/12/11 07:17:57;;;;;;;24.55;13.88;;;;;;;-8.34;100.00;101171.44;5013574;28;20239;-44
2022/12/11 07:20:23;;;;;;;25.25;12.93;;;;;;;-8.22;100.00;101175.38;5013327;28;20234;-46
2022/12/11 07:22:48;;;;;;;27.10;14.90;;;;;;;-8.20;100.00;101173.75;5013415;28;20278;-50
2022/12/11 07:25:14;;;;;;;25.00;13.95;;;;;;;-8.20;100.00;101176.34;5012904;28;20264;-44
2022/12/11 07:27:40;;;;;;;25.27;14.27;;;;;;;-8.21;100.00;101191.06;5013348;28;20236;-44
2022/12/11 07:30:07;;;;;;;24.20;13.38;;;;;;;-8.16;100.00;101179.13;5013072;28;20203;-44
2022/12/11 07:32:32;;;;;;;30.83;15.45;;;;;;;-8.18;100.00;101188.56;5012926;28;20187;-46
2022/12/11 07:34:57;;;;;;;24.42;13.93;;;;;;;-8.20;100.00;101187.66;5013349;28;20192;-47
2022/12/11 07:37:23;;;;;;;28.58;16.13;;;;;;;-8.31;100.00;101192.38;5013219;28;20169;-50
2022/12/11 07:39:49;;;;;;;34.33;17.02;;;;;;;-8.17;100.00;101197.28;5014358;28;20205;-50
2022/12/11 07:42:15;;;;;;;39.38;22.80;;;;;;;-8.20;100.00;101191.94;4996021;28;20210;-46
2022/12/11 07:44:40;;;;;;;44.13;23.05;;;;;;;-8.04;100.00;101191.78;5012600;28;20177;-45
2022/12/11 07:47:06;;;;;;;49.40;27.40;;;;;;;-7.98;100.00;101189.47;5012865;28;20173;-46
2022/12/11 07:49:31;;;;;;;56.72;31.98;;;;;;;-7.93;100.00;101194.84;5012855;28;20242;-45
2022/12/11 07:51:57;;;;;;;52.90;30.10;;;;;;;-8.00;100.00;101191.09;5012591;28;20171;-48
2022/12/11 07:54:23;;;;;;;33.75;18.50;;;;;;;-7.95;100.00;101192.19;5013007;28;20747;-46
2022/12/11 07:56:49;;;;;;;32.55;17.73;;;;;;;-7.81;100.00;101186.66;5012550;28;20241;-45
2022/12/11 07:59:15;;;;;;;36.90;20.63;;;;;;;-7.79;100.00;101191.09;5011343;28;20158;-47
2022/12/11 08:01:42;;;;;;;31.90;19.48;;;;;;;-7.88;100.00;101193.31;5012416;28;20618;-45
2022/12/11 08:04:10;;;;;;;29.27;17.27;;;;;;;-7.87;100.00;101200.31;5012080;28;20169;-45
2022/12/11 08:06:38;;;;;;;32.58;18.98;;;;;;;-7.81;100.00;101187.53;5012641;28;20597;-45
2022/12/11 08:09:05;;;;;;;34.65;20.25;;;;;;;-7.98;100.00;101186.84;5010187;28;20216;-44
2022/12/11 08:11:31;;;;;;;34.03;18.00;;;;;;;-7.92;100.00;101186.22;5010784;28;20287;-44
2022/12/11 08:13:58;;;;;;;40.55;21.63;;;;;;;-7.80;100.00;101194.53;4993078;28;20168;-46
2022/12/11 08:16:24;;;;;;;43.88;22.73;;;;;;;-7.69;100.00;101190.66;5012036;28;20580;-45
2022/12/11 08:18:50;;;;;;;36.53;21.20;;;;;;;-7.66;100.00;101189.91;5012700;28;20162;-45
2022/12/11 08:21:18;;;;;;;42.95;22.10;;;;;;;-7.50;100.00;101189.72;5011160;28;20200;-44
2022/12/11 08:23:44;;;;;;;77.28;33.60;;;;;;;-7.44;100.00;101176.03;5011446;28;20623;-45
2022/12/11 08:26:13;;;;;;;77.18;36.38;;;;;;;-7.33;100.00;101194.69;5011300;28;20172;-46
2022/12/11 08:28:38;;;;;;;65.13;33.05;;;;;;;-7.17;100.00;101194.50;5011582;28;20264;-47
2022/12/11 08:31:06;;;;;;;46.80;25.35;;;;;;;-7.09;100.00;101192.16;5011325;28;20674;-46
2022/12/11 08:33:33;;;;;;;51.35;26.13;;;;;;;-6.95;100.00;101182.28;5012044;28;20322;-47
2022/12/11 08:36:02;;;;;;;39.70;21.55;;;;;;;-6.79;100.00;101187.25;5011644;28;20256;-46
2022/12/11 08:38:28;;;;;;;42.30;23.13;;;;;;;-6.61;100.00;101175.75;5011702;28;20185;-49
2022/12/11 08:40:54;;;;;;;37.33;22.48;;;;;;;-6.53;100.00;101179.53;5011810;28;20231;-47
2022/12/11 08:43:19;;;;;;;34.08;20.15;;;;;;;-6.42;100.00;101168.66;5011845;28;20185;-43
2022/12/11 08:45:45;;;;;;;35.38;20.00;;;;;;;-6.37;100.00;101174.03;4994512;28;20243;-46
2022/12/11 08:48:11;;;;;;;33.17;20.65;;;;;;;-6.24;100.00;101178.84;5011696;28;20705;-44
2022/12/11 08:50:36;;;;;;;35.92;19.02;;;;;;;-6.00;100.00;101162.28;4994803;28;20223;-47
2022/12/11 08:53:02;;;;;;;34.05;18.73;;;;;;;-5.82;100.00;101177.63;5011781;28;20176;-47
2022/12/11 08:55:28;;;;;;;33.85;18.90;;;;;;;-5.68;100.00;101162.44;5011987;28;20173;-43
2022/12/11 08:57:54;;;;;;;35.28;19.75;;;;;;;-5.69;100.00;101168.50;5011824;28;20184;-47
2022/12/11 09:00:19;;;;;;;35.08;19.08;;;;;;;-5.62;100.00;101160.00;5011610;28;20203;-46
2022/12/11 09:02:45;;;;;;;32.00;18.98;;;;;;;-5.60;100.00;101172.31;5011634;28;20219;-47
2022/12/11 09:05:10;;;;;;;30.60;18.05;;;;;;;-5.45;100.00;101171.00;5012118;28;20517;-44
2022/12/11 09:07:37;;;;;;;31.75;18.33;;;;;;;-5.28;100.00;101158.50;5010223;28;20270;-45
2022/12/11 09:10:05;;;;;;;30.83;19.05;;;;;;;-5.20;100.00;101154.41;5012014;28;20200;-45
2022/12/11 09:12:33;;;;;;;29.58;17.42;;;;;;;-5.15;100.00;101141.50;5011550;28;20169;-43
2022/12/11 09:14:59;;;;;;;31.92;18.38;;;;;;;-5.09;100.00;101136.47;5012065;28;20658;-46
2022/12/11 09:17:25;;;;;;;35.20;19.30;;;;;;;-4.97;100.00;101157.72;4977735;28;20272;-45
2022/12/11 09:19:50;;;;;;;30.58;18.42;;;;;;;-4.98;100.00;101143.75;5011340;28;20207;-44
2022/12/11 09:22:16;;;;;;;32.30;18.95;;;;;;;-4.94;100.00;101139.53;4977527;28;20188;-45
2022/12/11 09:24:42;;;;;;;32.03;18.65;;;;;;;-4.91;100.00;101149.19;5010360;28;20276;-50
2022/12/11 09:27:07;;;;;;;31.10;17.13;;;;;;;-4.87;100.00;101144.09;5011871;28;20232;-43
2022/12/11 09:29:33;;;;;;;31.65;18.73;;;;;;;-4.77;100.00;101146.13;5011350;28;20161;-45
2022/12/11 09:31:59;;;;;;;27.65;17.58;;;;;;;-4.54;100.00;101150.25;5011085;28;20168;-45
2022/12/11 09:34:25;;;;;;;32.28;18.48;;;;;;;-4.46;100.00;101146.09;5011343;28;20298;-47
2022/12/11 09:36:50;;;;;;;31.33;18.92;;;;;;;-4.37;100.00;101149.88;5010945;28;20168;-45
2022/12/11 09:39:17;;;;;;;27.00;16.65;;;;;;;-4.24;100.00;101139.72;5009941;28;20200;-49
2022/12/11 09:41:54;;;;;;;27.95;16.95;;;;;;;-4.22;100.00;101141.56;5010740;28;20205;-49
2022/12/11 09:44:27;;;;;;;29.83;18.00;;;;;;;-4.16;100.00;101130.34;5010654;28;20169;-43
2022/12/11 09:46:52;;;;;;;24.40;16.27;;;;;;;-3.99;100.00;101128.19;5011038;28;20184;-46
2022/12/11 09:49:32;;;;;;;30.77;18.55;;;;;;;-3.90;100.00;101138.88;5010852;28;20169;-48
2022/12/11 09:52:09;;;;;;;25.42;16.73;;;;;;;-3.90;100.00;101131.03;5010807;28;20173;-49
2022/12/11 09:54:35;;;;;;;23.33;16.08;;;;;;;-3.70;100.00;101123.66;4993380;28;20180;-47
2022/12/11 09:57:30;;;;;;;24.52;15.85;;;;;;;-3.67;100.00;101121.16;5010709;28;20231;-43
2022/12/11 10:00:17;;;;;;;25.05;15.18;;;;;;;-3.79;100.00;101126.94;5010951;28;20197;-46
2022/12/11 10:02:49;;;;;;;21.45;14.02;;;;;;;-3.67;100.00;101128.09;5010370;28;20185;-43
2022/12/11 10:05:45;;;;;;;21.90;13.23;;;;;;;-3.30;100.00;101122.03;4993135;28;20179;-44
2022/12/11 10:08:22;;;;;;;23.50;15.38;;;;;;;-3.21;100.00;101113.47;5010812;28;20689;-44
2022/12/11 10:11:33;;;;;;;23.70;15.80;;;;;;;-3.44;100.00;101108.56;5010625;28;20200;-49
2022/12/11 10:14:25;;;;;;;20.02;14.70;;;;;;;-3.53;100.00;101106.63;5010762;28;20177;-45
2022/12/11 10:17:02;;;;;;;22.38;14.50;;;;;;;-3.54;100.00;101112.72;5010773;28;20204;-46
2022/12/11 10:19:31;;;;;;;21.52;13.75;;;;;;;-3.35;100.00;101102.66;5010862;28;20176;-48
2022/12/11 10:21:59;;;;;;;22.63;15.73;;;;;;;-3.33;100.00;101108.81;5010598;28;20192;-45
2022/12/11 10:24:55;;;;;;;22.45;14.80;;;;;;;-3.38;100.00;101108.72;5010541;28;20231;-44
2022/12/11 10:27:27;;;;;;;21.73;13.38;;;;;;;-3.34;100.00;101110.56;4992832;28;20538;-46
2022/12/11 10:30:15;;;;;;;19.10;12.48;;;;;;;-3.10;100.00;101096.25;5010796;28;20769;-46
2022/12/11 10:33:18;;;;;;;20.70;13.85;;;;;;;-3.25;100.00;101091.56;5010620;28;20169;-46
2022/12/11 10:35:50;;;;;;;22.23;14.23;;;;;;;-3.10;100.00;101093.63;5010704;28;20550;-47
2022/12/11 10:38:26;;;;;;;22.52;14.10;;;;;;;-3.06;100.00;101087.59;5013936;28;20161;-45
2022/12/11 10:40:56;;;;;;;19.85;13.18;;;;;;;-2.96;100.00;101086.06;4996784;28;20203;-47
2022/12/11 10:43:52;;;;;;;19.08;13.10;;;;;;;-2.96;100.00;101086.94;5014506;28;20177;-45
2022/12/11 10:46:26;;;;;;;17.77;12.77;;;;;;;-3.00;100.00;101094.69;4984231;28;20197;-46
2022/12/11 10:48:55;;;;;;;18.20;12.45;;;;;;;-2.98;100.00;101091.25;5014377;28;20238;-43
2022/12/11 10:51:33;;;;;;;18.05;12.43;;;;;;;-2.98;100.00;101082.50;4996411;28;20538;-43
2022/12/11 10:54:31;;;;;;;17.15;12.43;;;;;;;-3.05;100.00;101081.50;5014435;28;20196;-44
2022/12/11 10:56:58;;;;;;;16.27;10.85;;;;;;;-3.07;100.00;101080.59;4996434;28;20173;-42
2022/12/11 10:59:33;;;;;;;15.57;10.90;;;;;;;-2.98;100.00;101078.16;5014163;28;20635;-43
2022/12/11 11:01:59;;;;;;;16.70;10.90;;;;;;;-2.95;100.00;101070.38;5014145;28;20228;-47
2022/12/11 11:04:35;;;;;;;17.75;11.95;;;;;;;-3.00;100.00;101081.59;4996080;28;20287;-44
2022/12/11 11:07:14;;;;;;;14.32;11.45;;;;;;;-3.09;100.00;101077.03;5014190;28;20169;-46
2022/12/11 11:09:40;;;;;;;16.58;11.75;;;;;;;-2.94;100.00;101076.47;5014124;28;20251;-43
2022/12/11 11:12:26;;;;;;;14.98;11.52;;;;;;;-2.86;100.00;101071.38;5013917;28;20177;-44
2022/12/11 11:15:04;;;;;;;14.07;10.75;;;;;;;-2.84;100.00;101067.06;5013775;28;20184;-44
2022/12/11 11:17:31;;;;;;;16.67;11.65;;;;;;;-2.86;100.00;101071.38;5013589;28;20267;-43
2022/12/11 11:20:05;;;;;;;16.88;11.80;;;;;;;-2.83;100.00;101074.09;4996127;28;20214;-45
2022/12/11 11:22:31;;;;;;;18.20;12.45;;;;;;;-2.69;100.00;101059.50;5013488;28;20189;-43